createdAt,value
2019-04-27T00:00:03.744Z,8.60
2019-04-27T00:02:55.826Z,8.60
2019-04-27T00:05:26.620Z,8.50
2019-04-27T00:08:02.835Z,8.50
2019-04-27T00:10:33.811Z,8.50
2019-04-27T00:13:05.696Z,8.50
2019-04-27T00:15:40.422Z,8.50
2019-04-27T00:18:19.629Z,8.50
2019-04-27T00:20:49.845Z,8.50
2019-04-27T00:23:26.196Z,8.50
2019-04-27T00:25:54.785Z,8.40
2019-04-27T00:28:23.549Z,8.50
2019-04-27T00:30:59.710Z,8.50
2019-04-27T00:33:31.292Z,8.50
2019-04-27T00:36:03.026Z,8.50
2019-04-27T00:38:45.495Z,8.50
2019-04-27T00:41:15.767Z,8.40
2019-04-27T00:43:44.546Z,8.50
2019-04-27T00:46:13.879Z,8.50
2019-04-27T00:48:43.291Z,8.40
2019-04-27T00:51:13.055Z,8.40
2019-04-27T00:53:43.538Z,8.30
2019-04-27T00:56:17.299Z,8.30
2019-04-27T00:58:56.848Z,8.30
2019-04-27T01:01:29.784Z,8.30
2019-04-27T01:04:03.772Z,8.20
2019-04-27T01:06:33.625Z,8.20
2019-04-27T01:09:03.544Z,8.20
2019-04-27T01:11:33.303Z,8.10
2019-04-27T01:14:03.756Z,8.10
2019-04-27T01:16:32.467Z,8.10
2019-04-27T01:19:01.024Z,8.20
2019-04-27T01:21:29.672Z,8.20
2019-04-27T01:23:58.898Z,8.30
2019-04-27T01:26:35.336Z,8.30
2019-04-27T01:29:05.680Z,8.20
2019-04-27T01:31:34.315Z,8.20
2019-04-27T01:34:02.865Z,8.30
2019-04-27T01:36:31.446Z,8.20
2019-04-27T01:38:59.991Z,8.10
2019-04-27T01:41:29.614Z,8.10
2019-04-27T01:43:59.108Z,8.20
2019-04-27T01:46:29.413Z,8.20
2019-04-27T01:48:59.065Z,8.10
2019-04-27T01:51:29.423Z,8.10
2019-04-27T01:53:59.401Z,8.00
2019-04-27T01:56:29.413Z,8.00
2019-04-27T01:58:59.524Z,7.90
2019-04-27T02:01:44.943Z,7.80
2019-04-27T02:04:21.192Z,7.80
2019-04-27T02:06:51.527Z,7.70
2019-04-27T02:09:20.911Z,7.70
2019-04-27T02:11:49.703Z,7.70
2019-04-27T02:14:19.630Z,7.80
2019-04-27T02:16:49.257Z,7.80
2019-04-27T02:19:19.343Z,7.70
2019-04-27T02:21:51.115Z,7.70
2019-04-27T02:24:18.737Z,7.80
2019-04-27T02:26:47.440Z,7.70
2019-04-27T02:29:26.600Z,7.60
2019-04-27T02:32:01.115Z,7.60
2019-04-27T02:34:43.222Z,7.50
2019-04-27T02:37:11.772Z,7.60
2019-04-27T02:39:40.412Z,7.60
2019-04-27T02:42:10.133Z,7.60
2019-04-27T02:44:40.884Z,7.60
2019-04-27T02:47:10.490Z,7.60
2019-04-27T02:49:40.574Z,7.60
2019-04-27T02:52:14.961Z,7.70
2019-04-27T02:54:43.530Z,7.70
2019-04-27T02:57:12.151Z,7.60
2019-04-27T02:59:41.283Z,7.50
2019-04-27T03:02:14.603Z,7.50
2019-04-27T03:04:43.217Z,7.40
2019-04-27T03:07:11.845Z,7.50
2019-04-27T03:09:40.502Z,7.50
2019-04-27T03:12:10.205Z,7.40
2019-04-27T03:14:43.899Z,7.40
2019-04-27T03:17:25.904Z,7.40
2019-04-27T03:19:59.732Z,7.40
2019-04-27T03:22:36.338Z,7.40
2019-04-27T03:25:14.955Z,7.30
2019-04-27T03:27:43.230Z,7.30
2019-04-27T03:30:15.144Z,7.40
2019-04-27T03:32:43.921Z,7.30
2019-04-27T03:35:14.123Z,7.40
2019-04-27T03:37:44.209Z,7.40
2019-04-27T03:40:13.197Z,7.30
2019-04-27T03:42:43.530Z,7.40
2019-04-27T03:45:12.442Z,7.30
2019-04-27T03:47:41.137Z,7.30
2019-04-27T03:50:11.893Z,7.40
2019-04-27T03:52:59.955Z,7.40
2019-04-27T03:55:42.631Z,7.40
2019-04-27T03:58:12.129Z,7.40
2019-04-27T04:00:41.887Z,7.40
2019-04-27T04:03:10.758Z,7.50
2019-04-27T04:05:39.894Z,7.50
2019-04-27T04:08:10.667Z,7.50
2019-04-27T04:10:41.780Z,7.50
2019-04-27T04:13:14.909Z,7.50
2019-04-27T04:15:57.077Z,7.40
2019-04-27T04:18:26.307Z,7.50
2019-04-27T04:20:54.960Z,7.40
2019-04-27T04:23:24.001Z,7.40
2019-04-27T04:25:52.540Z,7.50
2019-04-27T04:28:21.099Z,7.50
2019-04-27T04:30:50.299Z,7.40
2019-04-27T04:33:20.591Z,7.40
2019-04-27T04:35:49.977Z,7.40
2019-04-27T04:38:20.554Z,7.30
2019-04-27T04:40:59.103Z,7.40
2019-04-27T04:43:29.441Z,7.40
2019-04-27T04:45:59.758Z,7.50
2019-04-27T04:48:30.238Z,7.50
2019-04-27T04:50:59.984Z,7.40
2019-04-27T04:53:29.395Z,7.40
2019-04-27T04:56:00.104Z,7.40
2019-04-27T04:58:29.445Z,7.40
2019-04-27T05:00:59.614Z,7.40
2019-04-27T05:03:28.711Z,7.30
2019-04-27T05:05:58.809Z,7.40
2019-04-27T05:08:29.103Z,7.40
2019-04-27T05:10:59.520Z,7.40
2019-04-27T05:13:29.298Z,7.40
2019-04-27T05:15:58.902Z,7.50
2019-04-27T05:18:29.141Z,7.50
2019-04-27T05:20:59.665Z,7.50
2019-04-27T05:23:28.766Z,7.60
2019-04-27T05:25:59.200Z,7.70
2019-04-27T05:28:29.645Z,7.60
2019-04-27T05:30:58.699Z,7.70
2019-04-27T05:33:28.637Z,7.70
2019-04-27T05:35:58.951Z,7.80
2019-04-27T05:38:29.272Z,7.80
2019-04-27T05:40:58.658Z,7.70
2019-04-27T05:43:38.916Z,7.80
2019-04-27T05:46:41.621Z,7.70
2019-04-27T05:49:11.879Z,7.80
2019-04-27T05:51:41.984Z,7.70
2019-04-27T05:54:10.604Z,7.80
2019-04-27T05:56:39.205Z,7.80
2019-04-27T05:59:09.177Z,7.80
2019-04-27T06:01:38.960Z,7.80
2019-04-27T06:04:08.996Z,7.80
2019-04-27T06:06:39.694Z,7.80
2019-04-27T06:09:09.499Z,7.90
2019-04-27T06:11:39.832Z,7.90
2019-04-27T06:14:09.685Z,7.90
2019-04-27T06:16:39.388Z,7.80
2019-04-27T06:19:09.638Z,7.80
2019-04-27T06:21:40.008Z,7.80
2019-04-27T06:24:08.822Z,7.80
2019-04-27T06:26:37.404Z,7.80
2019-04-27T06:29:05.988Z,7.80
2019-04-27T06:31:34.545Z,7.80
2019-04-27T06:34:03.121Z,7.80
2019-04-27T06:36:31.672Z,7.80
2019-04-27T06:39:00.249Z,7.80
2019-04-27T06:41:29.489Z,7.80
2019-04-27T06:43:59.228Z,7.90
2019-04-27T06:46:28.798Z,8.00
2019-04-27T06:48:59.165Z,8.10
2019-04-27T06:51:28.671Z,8.20
2019-04-27T06:53:59.343Z,8.20
2019-04-27T06:56:28.762Z,8.20
2019-04-27T06:58:57.416Z,8.20
2019-04-27T07:01:25.963Z,8.20
2019-04-27T07:03:54.542Z,8.20
2019-04-27T07:06:23.098Z,8.20
2019-04-27T07:08:51.671Z,8.30
2019-04-27T07:11:20.268Z,8.30
2019-04-27T07:13:49.793Z,8.30
2019-04-27T07:16:19.614Z,8.30
2019-04-27T07:18:48.339Z,8.30
2019-04-27T07:21:20.100Z,8.20
2019-04-27T07:23:59.596Z,8.30
2019-04-27T07:26:30.301Z,8.30
2019-04-27T07:28:59.571Z,8.20
2019-04-27T07:31:29.544Z,8.40
2019-04-27T07:33:59.509Z,8.40
2019-04-27T07:36:28.975Z,8.40
2019-04-27T07:38:59.669Z,8.40
2019-04-27T07:41:29.171Z,8.40
2019-04-27T07:44:05.491Z,8.40
2019-04-27T07:46:34.052Z,8.40
2019-04-27T07:49:02.627Z,8.40
2019-04-27T07:51:34.207Z,8.40
2019-04-27T07:54:01.408Z,8.50
2019-04-27T07:56:29.965Z,8.50
2019-04-27T07:58:59.510Z,8.40
2019-04-27T08:01:29.368Z,8.40
2019-04-27T08:03:59.038Z,8.60
2019-04-27T08:06:28.930Z,8.60
2019-04-27T08:08:59.380Z,8.80
2019-04-27T08:11:29.277Z,8.80
2019-04-27T08:13:58.820Z,9.00
2019-04-27T08:16:29.021Z,9.00
2019-04-27T08:18:59.846Z,8.80
2019-04-27T08:21:28.916Z,8.90
2019-04-27T08:23:58.665Z,8.90
2019-04-27T08:26:29.099Z,9.10
2019-04-27T08:29:15.479Z,9.10
2019-04-27T08:31:45.698Z,9.30
2019-04-27T08:34:32.176Z,9.50
2019-04-27T08:37:01.672Z,9.50
2019-04-27T08:39:30.471Z,9.60
2019-04-27T08:41:59.532Z,9.70
2019-04-27T08:44:29.259Z,9.80
2019-04-27T08:46:59.637Z,10.10
2019-04-27T08:49:29.227Z,10.10
2019-04-27T08:52:01.389Z,10.20
2019-04-27T08:54:29.449Z,10.70
2019-04-27T08:56:59.580Z,11.00
2019-04-27T08:59:29.689Z,11.60
2019-04-27T09:01:58.772Z,12.40
2019-04-27T09:04:28.802Z,12.80
2019-04-27T09:06:59.774Z,13.30
2019-04-27T09:09:33.080Z,13.60
2019-04-27T09:12:03.388Z,13.70
2019-04-27T09:14:36.372Z,13.70
2019-04-27T09:17:09.760Z,13.30
2019-04-27T09:19:49.197Z,13.40
2019-04-27T09:22:20.553Z,13.10
2019-04-27T09:24:49.422Z,12.80
2019-04-27T09:27:19.868Z,12.10
2019-04-27T09:29:49.981Z,11.90
2019-04-27T09:32:19.117Z,12.10
2019-04-27T09:34:47.878Z,11.90
2019-04-27T09:37:16.527Z,12.00
2019-04-27T09:39:46.120Z,11.80
2019-04-27T09:42:16.641Z,12.20
2019-04-27T09:44:45.699Z,12.90
2019-04-27T09:47:16.427Z,13.30
2019-04-27T09:49:46.123Z,13.60
2019-04-27T09:52:24.354Z,13.90
2019-04-27T09:54:48.164Z,14.60
2019-04-27T09:57:17.103Z,14.80
2019-04-27T09:59:46.081Z,14.40
2019-04-27T10:02:16.417Z,14.20
2019-04-27T10:04:46.170Z,14.10
2019-04-27T10:13:38.853Z,13.60
2019-04-27T10:16:07.441Z,13.60
2019-04-27T10:18:36.770Z,13.60
2019-04-27T10:21:06.346Z,13.50
2019-04-27T10:23:36.190Z,13.40
2019-04-27T10:26:05.822Z,13.60
2019-04-27T10:28:35.448Z,13.70
2019-04-27T10:31:06.902Z,14.40
2019-04-27T10:33:35.918Z,15.10
2019-04-27T10:36:06.347Z,16.30
2019-04-27T10:38:36.180Z,16.90
2019-04-27T10:41:05.943Z,17.00
2019-04-27T10:43:35.146Z,17.50
2019-04-27T10:46:03.764Z,17.70
2019-04-27T10:48:32.478Z,17.60
2019-04-27T10:51:01.101Z,17.60
2019-04-27T10:53:29.791Z,17.40
2019-04-27T10:55:58.324Z,16.90
2019-04-27T10:58:27.318Z,16.20
2019-04-27T11:00:58.440Z,15.80
2019-04-27T11:03:46.233Z,15.90
2019-04-27T11:06:26.163Z,16.10
2019-04-27T11:08:56.089Z,15.80
2019-04-27T11:11:25.912Z,15.80
2019-04-27T11:13:56.951Z,15.90
2019-04-27T11:16:25.713Z,15.90
2019-04-27T11:18:56.434Z,15.50
2019-04-27T11:21:26.095Z,15.40
2019-04-27T11:23:55.971Z,15.30
2019-04-27T11:26:26.224Z,15.30
2019-04-27T11:28:55.068Z,15.30
2019-04-27T11:31:23.696Z,15.10
2019-04-27T11:33:52.940Z,15.00
2019-04-27T11:36:23.136Z,15.10
2019-04-27T11:38:53.691Z,15.30
2019-04-27T11:41:22.256Z,15.10
2019-04-27T11:43:50.915Z,15.20
2019-04-27T11:46:19.470Z,15.30
2019-04-27T11:48:48.036Z,15.20
2019-04-27T11:51:17.485Z,15.20
2019-04-27T11:53:46.784Z,15.20
2019-04-27T11:56:15.726Z,15.20
2019-04-27T11:58:48.543Z,15.00
2019-04-27T12:01:16.246Z,14.90
2019-04-27T12:03:44.828Z,14.90
2019-04-27T12:06:13.443Z,13.90
2019-04-27T12:08:42.021Z,13.30
2019-04-27T12:11:12.111Z,12.80
2019-04-27T12:13:40.692Z,12.70
2019-04-27T12:16:09.308Z,12.50
2019-04-27T12:18:37.860Z,12.40
2019-04-27T12:21:06.436Z,12.50
2019-04-27T12:23:39.475Z,12.50
2019-04-27T12:26:05.868Z,12.30
2019-04-27T12:28:41.804Z,11.90
2019-04-27T12:31:11.999Z,11.80
2019-04-27T12:33:40.543Z,11.60
2019-04-27T12:36:09.310Z,11.30
2019-04-27T12:38:37.948Z,11.20
2019-04-27T12:41:06.866Z,11.20
2019-04-27T12:43:37.401Z,11.30
2019-04-27T12:46:06.145Z,11.50
2019-04-27T12:48:37.108Z,11.60
2019-04-27T12:51:05.074Z,12.00
2019-04-27T12:53:49.863Z,12.70
2019-04-27T12:56:28.454Z,13.10
2019-04-27T12:58:58.717Z,13.10
2019-04-27T13:01:29.032Z,12.80
2019-04-27T13:03:59.260Z,12.50
2019-04-27T13:06:27.954Z,12.20
2019-04-27T13:08:56.493Z,12.00
2019-04-27T13:11:26.713Z,12.10
2019-04-27T13:13:57.266Z,12.10
2019-04-27T13:16:27.217Z,12.20
2019-04-27T13:18:57.540Z,12.20
2019-04-27T13:21:26.386Z,12.80
2019-04-27T13:24:02.079Z,13.70
2019-04-27T13:26:25.231Z,15.10
2019-04-27T13:28:53.925Z,15.40
2019-04-27T13:31:22.512Z,15.30
2019-04-27T13:33:51.064Z,16.40
2019-04-27T13:36:19.651Z,16.60
2019-04-27T13:39:03.538Z,16.20
2019-04-27T13:41:32.939Z,16.80
2019-04-27T13:44:01.768Z,15.90
2019-04-27T13:46:37.743Z,16.10
2019-04-27T13:49:17.840Z,16.10
2019-04-27T13:51:48.162Z,15.60
2019-04-27T13:54:23.681Z,15.30
2019-04-27T13:56:47.711Z,15.40
2019-04-27T13:59:16.460Z,15.50
2019-04-27T14:01:45.183Z,15.50
2019-04-27T14:04:14.024Z,15.40
2019-04-27T14:06:42.758Z,15.40
2019-04-27T14:09:12.758Z,15.50
2019-04-27T14:11:41.464Z,15.20
2019-04-27T14:14:10.166Z,15.30
2019-04-27T14:16:39.232Z,15.00
2019-04-27T14:19:08.593Z,15.10
2019-04-27T14:21:38.814Z,15.30
2019-04-27T14:24:07.608Z,15.40
2019-04-27T14:26:36.185Z,15.70
2019-04-27T14:29:05.300Z,15.60
2019-04-27T14:31:33.949Z,15.90
2019-04-27T14:34:02.601Z,15.70
2019-04-27T14:36:31.248Z,16.00
2019-04-27T14:38:59.803Z,16.30
2019-04-27T14:41:28.568Z,16.60
2019-04-27T14:44:07.499Z,16.10
2019-04-27T14:46:28.305Z,15.90
2019-04-27T14:48:57.684Z,15.60
2019-04-27T14:51:26.255Z,15.90
2019-04-27T14:53:54.832Z,16.10
2019-04-27T14:56:24.862Z,16.30
2019-04-27T14:58:53.841Z,16.50
2019-04-27T15:01:22.392Z,16.40
2019-04-27T15:03:51.044Z,16.00
2019-04-27T15:06:20.400Z,16.00
2019-04-27T15:08:50.075Z,16.00
2019-04-27T15:11:19.449Z,15.90
2019-04-27T15:13:50.427Z,15.50
2019-04-27T15:16:18.465Z,15.30
2019-04-27T15:18:51.563Z,15.30
2019-04-27T15:21:20.420Z,15.30
2019-04-27T15:23:49.143Z,15.20
2019-04-27T15:26:20.353Z,15.00
2019-04-27T15:28:51.112Z,15.30
2019-04-27T15:31:29.371Z,15.40
2019-04-27T15:34:05.027Z,15.30
2019-04-27T15:36:40.989Z,15.10
2019-04-27T15:39:18.254Z,15.20
2019-04-27T15:41:51.814Z,15.30
2019-04-27T15:44:20.535Z,15.30
2019-04-27T15:46:49.237Z,15.40
2019-04-27T15:49:18.051Z,15.50
2019-04-27T15:51:46.751Z,15.70
2019-04-27T15:54:15.279Z,15.90
2019-04-27T15:56:43.902Z,15.80
2019-04-27T15:59:12.608Z,15.60
2019-04-27T16:01:41.209Z,15.50
2019-04-27T16:04:11.336Z,15.50
2019-04-27T16:06:42.841Z,15.40
2019-04-27T16:09:16.135Z,15.40
2019-04-27T16:11:42.239Z,15.20
2019-04-27T16:14:10.828Z,15.20
2019-04-27T16:16:40.423Z,15.10
2019-04-27T16:19:11.607Z,14.90
2019-04-27T16:21:46.605Z,14.90
2019-04-27T16:24:12.500Z,14.80
2019-04-27T16:26:41.882Z,14.70
2019-04-27T16:29:10.367Z,14.70
2019-04-27T16:31:39.177Z,14.70
2019-04-27T16:34:08.320Z,14.60
2019-04-27T16:36:43.510Z,14.70
2019-04-27T16:39:10.103Z,14.70
2019-04-27T16:41:41.774Z,14.60
2019-04-27T16:44:10.922Z,14.60
2019-04-27T16:46:42.819Z,14.50
2019-04-27T16:49:13.830Z,14.40
2019-04-27T16:51:40.304Z,14.40
2019-04-27T16:54:11.142Z,14.30
2019-04-27T16:56:40.096Z,14.40
2019-04-27T17:01:40.127Z,14.30
2019-04-27T17:04:11.211Z,14.20
2019-04-27T17:06:46.109Z,14.20
2019-04-27T17:09:11.755Z,14.20
2019-04-27T17:11:43.673Z,14.00
2019-04-27T17:12:41.091Z,14.40
2019-04-27T17:14:12.201Z,14.00
2019-04-27T17:16:58.976Z,13.90
2019-04-27T17:19:30.674Z,13.80
2019-04-27T17:21:59.407Z,13.70
2019-04-27T17:24:37.482Z,13.70
2019-04-27T17:27:02.750Z,13.50
2019-04-27T17:29:33.095Z,13.50
2019-04-27T17:32:02.220Z,13.40
2019-04-27T17:34:30.934Z,13.40
2019-04-27T17:36:59.482Z,13.30
2019-04-27T17:39:29.582Z,13.30
2019-04-27T17:41:58.751Z,13.30
2019-04-27T17:44:28.871Z,13.30
2019-04-27T17:46:57.611Z,13.20
2019-04-27T17:49:27.968Z,13.10
2019-04-27T17:51:58.376Z,13.10
2019-04-27T17:54:26.656Z,13.20
2019-04-27T17:56:55.307Z,13.10
2019-04-27T17:59:23.874Z,13.00
2019-04-27T18:01:53.991Z,13.00
2019-04-27T18:04:22.820Z,13.10
2019-04-27T18:06:51.404Z,13.00
2019-04-27T18:09:20.978Z,13.10
2019-04-27T18:11:50.376Z,13.10
2019-04-27T18:14:19.375Z,12.40
2019-04-27T18:16:48.321Z,11.50
2019-04-27T18:19:24.686Z,10.50
2019-04-27T18:22:00.507Z,9.80
2019-04-27T18:24:29.411Z,9.30
2019-04-27T18:27:09.083Z,9.00
2019-04-27T18:29:38.704Z,8.80
2019-04-27T18:32:08.875Z,8.70
2019-04-27T18:34:38.897Z,8.50
2019-04-27T18:37:08.824Z,8.40
2019-04-27T18:39:40.945Z,8.20
2019-04-27T18:42:09.217Z,8.10
2019-04-27T18:44:38.240Z,8.00
2019-04-27T18:47:08.396Z,7.80
2019-04-27T18:50:07.366Z,7.80
2019-04-27T18:55:18.525Z,7.70
2019-04-27T18:57:50.332Z,7.60
2019-04-27T19:00:18.816Z,7.60
2019-04-27T19:02:50.048Z,7.60
2019-04-27T19:05:18.850Z,7.60
2019-04-27T19:07:48.462Z,7.60
2019-04-27T19:10:19.055Z,7.50
2019-04-27T19:12:48.404Z,7.50
2019-04-27T19:15:18.363Z,7.50
2019-04-27T19:17:49.048Z,7.50
2019-04-27T19:20:18.660Z,7.50
2019-04-27T19:22:49.008Z,7.40
2019-04-27T19:25:21.983Z,7.50
2019-04-27T19:28:08.692Z,7.50
2019-04-27T19:30:42.221Z,7.40
2019-04-27T19:33:10.937Z,7.40
2019-04-27T19:35:39.492Z,7.30
2019-04-27T19:38:09.544Z,7.30
2019-04-27T19:40:38.092Z,7.30
2019-04-27T19:43:06.702Z,7.30
2019-04-27T19:45:35.791Z,7.30
2019-04-27T19:48:04.420Z,7.20
2019-04-27T19:50:32.972Z,7.20
2019-04-27T19:53:01.552Z,7.20
2019-04-27T19:55:30.180Z,7.20
2019-04-27T19:58:01.467Z,7.20
2019-04-27T20:00:48.395Z,7.10
2019-04-27T20:03:19.346Z,7.10
2019-04-27T20:05:48.000Z,7.00
2019-04-27T20:08:20.918Z,7.00
2019-04-27T20:10:49.539Z,6.90
2019-04-27T20:13:18.192Z,6.90
2019-04-27T20:15:46.867Z,6.80
2019-04-27T20:18:15.432Z,6.80
2019-04-27T20:20:43.983Z,6.80
2019-04-27T20:23:14.100Z,6.70
2019-04-27T20:25:42.760Z,6.60
2019-04-27T20:28:12.114Z,6.50
2019-04-27T20:30:41.619Z,6.50
2019-04-27T20:33:11.048Z,6.40
2019-04-27T20:35:40.811Z,6.40
2019-04-27T20:38:10.902Z,6.50
2019-04-27T20:40:41.526Z,6.40
2019-04-27T20:43:10.144Z,6.30
2019-04-27T20:45:38.765Z,6.30
2019-04-27T20:48:07.391Z,6.40
2019-04-27T20:50:36.036Z,6.30
2019-04-27T20:53:06.385Z,6.30
2019-04-27T20:55:34.936Z,6.50
2019-04-27T20:58:03.580Z,6.50
2019-04-27T21:00:32.340Z,6.50
2019-04-27T21:03:05.448Z,6.50
2019-04-27T21:05:53.504Z,6.40
2019-04-27T21:08:23.787Z,6.50
2019-04-27T21:10:52.323Z,6.50
2019-04-27T21:13:20.966Z,6.40
2019-04-27T21:15:50.942Z,6.40
2019-04-27T21:18:21.591Z,6.30
2019-04-27T21:20:51.198Z,6.30
2019-04-27T21:23:21.031Z,6.20
2019-04-27T21:25:53.032Z,6.20
2019-04-27T21:28:20.136Z,6.20
2019-04-27T21:30:48.684Z,6.10
2019-04-27T21:33:17.341Z,6.10
2019-04-27T21:35:47.612Z,6.10
2019-04-27T21:38:16.295Z,6.10
2019-04-27T21:40:44.907Z,6.20
2019-04-27T21:43:15.087Z,6.30
2019-04-27T21:45:43.693Z,6.20
2019-04-27T21:48:12.341Z,6.10
2019-04-27T21:50:41.379Z,6.20
2019-04-27T21:53:11.551Z,6.20
2019-04-27T21:55:41.991Z,6.20
2019-04-27T21:58:11.567Z,6.20
2019-04-27T22:00:42.846Z,6.30
2019-04-27T22:03:13.713Z,6.20
2019-04-27T22:05:42.308Z,6.20
2019-04-27T22:08:11.677Z,6.30
2019-04-27T22:10:40.692Z,6.20
2019-04-27T22:13:09.313Z,6.20
2019-04-27T22:15:37.964Z,6.20
2019-04-27T22:18:06.742Z,6.20
2019-04-27T22:20:35.852Z,6.10
2019-04-27T22:23:06.205Z,6.00
2019-04-27T22:25:36.454Z,6.00
2019-04-27T22:28:05.150Z,6.10
2019-04-27T22:30:34.111Z,6.00
2019-04-27T22:33:02.729Z,6.00
2019-04-27T22:35:31.400Z,5.90
2019-04-27T22:38:01.962Z,5.90
2019-04-27T22:40:50.730Z,5.90
2019-04-27T22:43:36.656Z,6.00
2019-04-27T22:46:07.000Z,5.90
2019-04-27T22:48:35.991Z,5.90
2019-04-27T22:51:04.895Z,5.90
2019-04-27T22:53:33.458Z,6.00
2019-04-27T22:56:13.517Z,6.00
2019-04-27T22:58:57.060Z,6.00
2019-04-27T23:01:34.329Z,6.10
2019-04-27T23:04:13.056Z,6.10
2019-04-27T23:06:41.895Z,6.10
2019-04-27T23:09:11.804Z,6.20
2019-04-27T23:11:41.475Z,6.20
2019-04-27T23:14:11.099Z,6.20
2019-04-27T23:16:42.091Z,6.20
2019-04-27T23:19:10.994Z,6.20
2019-04-27T23:21:39.649Z,6.30
2019-04-27T23:24:09.803Z,6.30
2019-04-27T23:26:38.367Z,6.40
2019-04-27T23:29:15.217Z,6.40
2019-04-27T23:31:48.019Z,6.50
2019-04-27T23:34:16.563Z,6.50
2019-04-27T23:36:45.129Z,6.50
2019-04-27T23:39:13.915Z,6.50
2019-04-27T23:41:42.487Z,6.60
2019-04-27T23:44:11.028Z,6.60
2019-04-27T23:46:39.608Z,6.50
2019-04-27T23:49:08.155Z,6.50
2019-04-27T23:51:38.376Z,6.50
2019-04-27T23:54:06.947Z,6.60
2019-04-27T23:56:35.567Z,6.50
2019-04-27T23:59:04.256Z,6.50
